Time;durP1;ratioP1;P1;durP2;ratioP2;P2;SDS_P1;SDS_P2;PMS_P1;PMS_P2;Temp;Humidity;BMP_temperature;BMP_pressure;BME280_temperature;BME280_humidity;BME280_pressure;Samples;Min_cycle;Max_cycle;Signal;HPM_P1;HPM_P2
2023/07/28 00:00:39;;;;;;;1.35;1.00;;;;;;;22.08;80.68;99927.56;5049112;27;96803;-72
2023/07/28 00:03:05;;;;;;;1.33;0.82;;;;;;;22.20;80.66;99931.75;5045851;27;97816;-73
2023/07/28 00:05:31;;;;;;;3.15;0.70;;;;;;;21.96;81.14;99931.44;5051136;27;99479;-72
2023/07/28 00:07:58;;;;;;;1.48;0.93;;;;;;;21.81;81.89;99929.16;5047480;27;99735;-72
2023/07/28 00:10:24;;;;;;;2.33;0.70;;;;;;;21.98;81.51;99919.53;5050829;27;97556;-72
2023/07/28 00:12:50;;;;;;;0.90;0.70;;;;;;;21.97;81.38;99925.06;5046551;27;99146;-73
2023/07/28 00:15:18;;;;;;;2.50;0.93;;;;;;;22.02;80.97;99918.25;5053050;27;99017;-72
2023/07/28 00:17:44;;;;;;;1.23;1.00;;;;;;;22.02;81.10;99917.38;5045830;27;98766;-73
2023/07/28 00:20:12;;;;;;;2.55;0.93;;;;;;;22.09;80.75;99913.13;5046676;27;96808;-72
2023/07/28 00:22:38;;;;;;;2.33;1.15;;;;;;;22.18;80.61;99912.25;5047258;27;96974;-72
2023/07/28 00:25:05;;;;;;;4.05;1.30;;;;;;;22.01;81.17;99908.47;5052629;27;101369;-72
2023/07/28 00:27:32;;;;;;;3.33;1.13;;;;;;;21.91;81.91;99907.63;5058700;27;98954;-72
2023/07/28 00:29:58;;;;;;;3.75;1.45;;;;;;;21.65;82.64;99895.81;5050651;27;96751;-73
2023/07/28 00:32:26;;;;;;;2.58;1.92;;;;;;;21.87;82.25;99899.00;5043603;27;96938;-73
2023/07/28 00:34:53;;;;;;;2.78;1.65;;;;;;;21.87;82.67;99890.94;5055133;27;99756;-73
2023/07/28 00:37:19;;;;;;;3.05;1.90;;;;;;;21.93;82.40;99899.41;5051554;27;99102;-73
2023/07/28 00:39:46;;;;;;;5.57;1.95;;;;;;;21.98;82.33;99900.72;5043683;27;96818;-73
2023/07/28 00:42:12;;;;;;;3.33;1.77;;;;;;;21.88;82.50;99891.78;5044755;27;96808;-74
2023/07/28 00:44:38;;;;;;;2.30;1.70;;;;;;;21.67;83.53;99897.34;5050325;27;99263;-73
2023/07/28 00:47:05;;;;;;;4.70;2.00;;;;;;;21.90;82.31;99892.50;5051809;27;98712;-75
2023/07/28 00:49:33;;;;;;;4.78;1.60;;;;;;;21.86;82.80;99894.59;5053098;27;96823;-73
2023/07/28 00:52:00;;;;;;;2.28;1.90;;;;;;;21.68;83.41;99896.38;5058884;27;97120;-73
2023/07/28 00:54:26;;;;;;;4.65;1.85;;;;;;;21.72;83.34;99900.47;5048471;27;98846;-74
2023/07/28 00:56:52;;;;;;;1.88;1.77;;;;;;;21.92;82.34;99892.34;5045352;27;100755;-74
2023/07/28 00:59:19;;;;;;;2.95;1.70;;;;;;;21.88;83.24;99892.63;5053905;27;96798;-73
2023/07/28 01:01:45;;;;;;;4.22;1.83;;;;;;;21.91;82.98;99886.13;5048216;27;96874;-73
2023/07/28 01:04:12;;;;;;;5.07;1.23;;;;;;;21.77;83.36;99884.75;5055079;27;98469;-72
2023/07/28 01:06:50;;;;;;;2.65;1.60;;;;;;;21.81;83.77;99883.44;5051990;27;100145;-73
2023/07/28 01:09:19;;;;;;;3.72;1.52;;;;;;;21.95;82.93;99886.66;5057557;27;97533;-73
2023/07/28 01:11:55;;;;;;;3.40;1.80;;;;;;;21.91;83.18;99888.81;5044048;27;97208;-73
2023/07/28 01:14:21;;;;;;;3.40;1.30;;;;;;;21.76;84.13;99884.88;5049478;27;99645;-73
2023/07/28 01:16:48;;;;;;;1.40;1.30;;;;;;;21.87;83.67;99880.16;5051007;27;98100;-73
2023/07/28 01:19:17;;;;;;;2.53;1.20;;;;;;;21.81;83.77;99874.53;5053896;27;96750;-72
2023/07/28 01:21:47;;;;;;;7.00;1.75;;;;;;;21.74;84.33;99868.91;5046797;27;98491;-72
2023/07/28 01:24:21;;;;;;;2.63;1.52;;;;;;;21.72;85.06;99873.59;5057937;27;99077;-73
2023/07/28 01:26:50;;;;;;;2.85;1.67;;;;;;;21.70;85.07;99875.56;5047223;27;99155;-73
2023/07/28 01:29:18;;;;;;;1.30;1.13;;;;;;;21.81;84.53;99864.63;5052038;27;96781;-72
2023/07/28 01:31:47;;;;;;;3.47;1.30;;;;;;;21.84;84.44;99872.41;5047940;27;97278;-72
2023/07/28 01:34:13;;;;;;;4.38;1.45;;;;;;;21.75;85.30;99873.28;5054724;27;98154;-73
2023/07/28 01:36:39;;;;;;;1.42;1.33;;;;;;;21.75;85.23;99877.81;5053437;27;97509;-71
2023/07/28 01:39:06;;;;;;;3.55;1.65;;;;;;;21.73;85.82;99867.19;5041923;27;96798;-73
2023/07/28 01:41:32;;;;;;;2.58;1.80;;;;;;;21.76;85.96;99866.06;5049634;27;96778;-72
2023/07/28 01:44:00;;;;;;;5.88;1.90;;;;;;;21.82;86.01;99876.22;5051227;27;99821;-72
2023/07/28 01:46:26;;;;;;;11.77;2.75;;;;;;;21.81;86.41;99869.16;5050142;27;97840;-72
2023/07/28 01:48:53;;;;;;;5.88;1.80;;;;;;;21.95;85.48;99873.22;5050996;27;96916;-73
2023/07/28 01:51:19;;;;;;;9.18;2.00;;;;;;;21.79;85.92;99877.38;5046650;27;97448;-73
2023/07/28 01:53:46;;;;;;;4.97;2.10;;;;;;;21.57;87.19;99876.88;5058291;27;98875;-72
2023/07/28 01:56:12;;;;;;;5.15;2.08;;;;;;;21.66;87.36;99871.47;5050106;27;98797;-72
2023/07/28 01:58:38;;;;;;;5.25;1.92;;;;;;;21.46;88.00;99872.53;5055315;27;98873;-72
2023/07/28 02:01:06;;;;;;;4.10;2.17;;;;;;;21.64;87.48;99873.47;5048780;27;98564;-72
2023/07/28 02:03:32;;;;;;;5.68;2.00;;;;;;;21.70;87.29;99867.50;5044419;27;98207;-72
2023/07/28 02:05:59;;;;;;;2.47;2.20;;;;;;;21.88;86.15;99871.13;5055799;27;99067;-72
2023/07/28 02:08:25;;;;;;;7.07;2.30;;;;;;;21.98;85.52;99868.44;5053712;27;97715;-72
2023/07/28 02:10:54;;;;;;;3.08;2.40;;;;;;;21.87;86.08;99866.72;5063054;27;96843;-72
2023/07/28 02:13:20;;;;;;;4.63;2.95;;;;;;;22.02;85.32;99866.28;5058195;27;99612;-72
2023/07/28 02:15:46;;;;;;;3.92;2.65;;;;;;;21.98;85.09;99867.59;5052756;27;98038;-72
2023/07/28 02:18:14;;;;;;;5.22;3.10;;;;;;;21.69;86.59;99864.97;5054871;27;96814;-72
2023/07/28 02:20:40;;;;;;;5.07;3.40;;;;;;;21.78;86.61;99864.94;5052436;27;96772;-72
2023/07/28 02:23:07;;;;;;;6.22;3.58;;;;;;;21.62;87.43;99870.06;5050346;27;99348;-72
2023/07/28 02:25:33;;;;;;;4.35;3.70;;;;;;;21.61;87.51;99867.53;5053193;27;98795;-72
2023/07/28 02:28:00;;;;;;;12.20;4.00;;;;;;;21.88;86.77;99871.13;5048796;27;96712;-71
2023/07/28 02:30:26;;;;;;;5.00;3.97;;;;;;;21.94;86.47;99866.13;5049731;27;96778;-71
2023/07/28 02:32:52;;;;;;;4.00;3.47;;;;;;;21.87;86.60;99866.72;5048976;27;97788;-72
2023/07/28 02:35:20;;;;;;;4.45;3.90;;;;;;;21.72;86.91;99865.53;5049272;27;99965;-72
2023/07/28 02:37:46;;;;;;;4.07;3.60;;;;;;;21.80;86.97;99857.56;5053850;27;98920;-72
2023/07/28 02:40:13;;;;;;;6.13;4.00;;;;;;;21.73;87.20;99851.06;5050715;27;96762;-72
2023/07/28 02:42:40;;;;;;;4.72;3.70;;;;;;;21.85;87.08;99860.66;5054623;27;99695;-72
2023/07/28 02:45:07;;;;;;;10.73;4.10;;;;;;;21.81;87.14;99853.88;5055333;27;99098;-72
2023/07/28 02:47:33;;;;;;;4.57;3.47;;;;;;;21.82;86.82;99846.66;5051855;27;96845;-72
2023/07/28 02:50:00;;;;;;;4.95;4.53;;;;;;;21.82;87.62;99855.56;5050347;27;96808;-73
2023/07/28 02:52:27;;;;;;;5.35;4.32;;;;;;;21.71;87.38;99853.06;5051283;27;99241;-71
2023/07/28 02:54:55;;;;;;;6.25;4.07;;;;;;;21.80;87.37;99849.47;5060459;27;98951;-71
2023/07/28 02:57:21;;;;;;;7.80;4.38;;;;;;;21.64;88.26;99845.75;5050025;27;96795;-71
2023/07/28 02:59:47;;;;;;;6.70;4.10;;;;;;;21.88;86.97;99841.53;5049020;27;98361;-71
2023/07/28 03:02:14;;;;;;;4.85;4.45;;;;;;;22.13;85.87;99850.78;5044017;27;98868;-72
2023/07/28 03:04:40;;;;;;;7.43;4.57;;;;;;;21.90;86.97;99856.69;5048867;27;99690;-72
2023/07/28 03:07:06;;;;;;;8.15;5.30;;;;;;;21.82;87.27;99846.66;5045983;27;97157;-73
2023/07/28 03:09:34;;;;;;;6.95;4.53;;;;;;;21.85;87.18;99855.28;5050011;27;97708;-72
2023/07/28 03:12:01;;;;;;;6.93;4.65;;;;;;;21.99;86.72;99853.16;5045118;27;99187;-72
2023/07/28 03:14:28;;;;;;;7.82;4.55;;;;;;;21.82;87.42;99855.56;5055182;27;98967;-71
2023/07/28 03:16:54;;;;;;;6.65;4.97;;;;;;;21.58;88.07;99857.94;5051709;27;98483;-71
2023/07/28 03:19:21;;;;;;;8.95;4.47;;;;;;;21.52;89.02;99865.72;5057511;27;97128;-72
2023/07/28 03:21:48;;;;;;;5.43;4.93;;;;;;;21.54;89.53;99872.63;5053041;27;98938;-71
2023/07/28 03:24:14;;;;;;;6.80;4.50;;;;;;;21.77;88.16;99870.47;5039468;27;99142;-72
2023/07/28 03:26:42;;;;;;;6.07;4.85;;;;;;;21.59;88.81;99870.38;5051344;27;96976;-73
2023/07/28 03:29:08;;;;;;;6.90;4.90;;;;;;;21.77;87.98;99874.00;5050655;27;96939;-72
2023/07/28 03:31:35;;;;;;;8.80;4.50;;;;;;;21.61;88.61;99881.81;5054054;27;101449;-72
2023/07/28 03:34:02;;;;;;;6.38;4.72;;;;;;;21.78;87.98;99880.22;5051799;27;99510;-72
2023/07/28 03:36:28;;;;;;;5.10;4.25;;;;;;;21.98;86.93;99876.50;5047103;27;98062;-72
2023/07/28 03:38:55;;;;;;;4.93;4.43;;;;;;;21.70;87.56;99889.03;5052053;27;96946;-71
2023/07/28 03:41:21;;;;;;;7.13;4.60;;;;;;;21.66;88.57;99876.84;5050972;27;100602;-72
2023/07/28 03:43:49;;;;;;;6.03;5.15;;;;;;;21.78;87.60;99881.06;5052760;27;100858;-72
2023/07/28 03:46:16;;;;;;;7.82;5.07;;;;;;;21.63;88.55;99890.59;5052819;27;96687;-71
2023/07/28 03:48:42;;;;;;;6.18;4.80;;;;;;;21.63;89.12;99892.44;5047592;27;96860;-72
2023/07/28 03:51:08;;;;;;;5.47;4.47;;;;;;;21.49;89.29;99896.41;5045878;27;99104;-72
2023/07/28 03:53:35;;;;;;;6.90;4.90;;;;;;;21.49;89.59;99888.34;5049439;27;98864;-72
2023/07/28 03:56:02;;;;;;;6.82;4.72;;;;;;;21.72;88.65;99891.56;5048789;27;97428;-72
2023/07/28 03:58:28;;;;;;;13.50;5.32;;;;;;;21.82;88.05;99893.22;5052776;27;96919;-71
2023/07/28 04:00:56;;;;;;;5.72;4.95;;;;;;;21.56;88.97;99897.53;5055956;27;99324;-73
2023/07/28 04:03:22;;;;;;;9.85;5.22;;;;;;;21.53;88.53;99888.94;5052394;27;98440;-72
2023/07/28 04:05:49;;;;;;;6.88;4.85;;;;;;;21.48;89.75;99900.09;5059871;27;98866;-72
2023/07/28 04:08:15;;;;;;;7.72;5.15;;;;;;;21.59;88.87;99897.25;5054250;27;97565;-72
2023/07/28 04:10:42;;;;;;;11.65;5.07;;;;;;;21.48;90.07;99905.47;5055701;27;99016;-72
2023/07/28 04:13:09;;;;;;;5.65;4.65;;;;;;;21.60;89.26;99901.63;5051381;27;98985;-72
2023/07/28 04:15:35;;;;;;;11.40;5.07;;;;;;;21.72;88.81;99903.16;5051099;27;96809;-73
2023/07/28 04:18:03;;;;;;;5.63;5.00;;;;;;;21.75;88.30;99912.78;5052862;27;96851;-72
2023/07/28 04:20:30;;;;;;;8.85;5.05;;;;;;;21.96;87.19;99918.84;5051570;27;99417;-72
2023/07/28 04:22:56;;;;;;;6.00;5.07;;;;;;;21.79;87.59;99916.88;5050772;27;99005;-72
2023/07/28 04:25:23;;;;;;;8.35;5.43;;;;;;;21.99;87.25;99912.31;5051664;27;96723;-73
2023/07/28 04:27:49;;;;;;;8.63;5.72;;;;;;;21.98;86.70;99907.94;5051073;27;97470;-73
2023/07/28 04:30:15;;;;;;;6.53;5.35;;;;;;;21.84;86.77;99902.00;5051579;27;99196;-73
2023/07/28 04:32:42;;;;;;;6.95;5.35;;;;;;;21.87;87.65;99896.31;5048792;27;99871;-72
2023/07/28 04:35:10;;;;;;;11.73;5.38;;;;;;;22.01;86.96;99897.72;5051391;27;96877;-72
2023/07/28 04:37:36;;;;;;;8.73;5.55;;;;;;;22.05;86.78;99904.50;5051175;27;96949;-72
2023/07/28 04:40:03;;;;;;;12.98;5.60;;;;;;;22.18;85.94;99904.16;5054078;27;98898;-72
2023/07/28 04:42:29;;;;;;;6.00;5.25;;;;;;;22.19;86.12;99898.63;5057856;27;98840;-72
2023/07/28 04:44:56;;;;;;;6.05;5.07;;;;;;;22.14;86.03;99900.06;5053618;27;96791;-72
2023/07/28 04:47:22;;;;;;;6.50;5.22;;;;;;;22.32;84.82;99902.84;5051697;27;97264;-72
2023/07/28 04:49:49;;;;;;;5.13;4.72;;;;;;;22.17;85.38;99899.78;5058981;27;101712;-72
2023/07/28 04:52:17;;;;;;;7.53;5.55;;;;;;;22.17;85.99;99897.94;5049558;27;98808;-73
2023/07/28 04:54:43;;;;;;;10.75;5.72;;;;;;;22.06;86.88;99897.25;5049751;27;97535;-72
2023/07/28 04:57:09;;;;;;;7.30;4.97;;;;;;;22.21;86.11;99901.16;5045817;27;96921;-72
2023/07/28 04:59:36;;;;;;;7.10;5.15;;;;;;;22.21;86.04;99896.63;5051515;27;101539;-72
2023/07/28 05:02:02;;;;;;;6.75;4.95;;;;;;;21.97;86.82;99900.84;5048512;27;99128;-72
2023/07/28 05:04:29;;;;;;;7.93;5.50;;;;;;;22.04;86.88;99904.66;5058038;27;97089;-71
2023/07/28 05:06:55;;;;;;;9.48;5.72;;;;;;;22.07;87.10;99912.41;5054031;27;97030;-72
2023/07/28 05:09:27;;;;;;;6.20;5.22;;;;;;;22.07;87.03;99912.41;5053158;27;99215;-72
2023/07/28 05:11:54;;;;;;;7.95;6.10;;;;;;;22.39;85.81;99918.19;5051568;27;99022;-72
2023/07/28 05:14:20;;;;;;;8.20;5.95;;;;;;;22.46;85.07;99915.75;5053607;27;96733;-72
2023/07/28 05:16:47;;;;;;;10.63;5.32;;;;;;;22.57;84.65;99916.44;5056601;27;97755;-73
2023/07/28 05:19:14;;;;;;;6.32;5.68;;;;;;;22.44;84.24;99910.56;5047876;27;99007;-72
2023/07/28 05:21:40;;;;;;;8.90;5.40;;;;;;;22.44;84.51;99926.69;5046465;27;98922;-73
2023/07/28 05:24:07;;;;;;;5.90;5.20;;;;;;;22.54;84.22;99921.25;5052153;27;96869;-71
2023/07/28 05:26:35;;;;;;;7.93;5.25;;;;;;;22.57;83.60;99920.97;5049557;27;97857;-72
2023/07/28 05:29:01;;;;;;;5.80;5.38;;;;;;;22.47;84.48;99926.38;5046837;27;98330;-73
2023/07/28 05:31:28;;;;;;;5.18;4.68;;;;;;;22.45;84.42;99931.06;5047987;27;98165;-72
2023/07/28 05:33:54;;;;;;;5.75;5.13;;;;;;;22.36;84.98;99929.28;5050532;27;97786;-72
2023/07/28 05:36:21;;;;;;;6.95;5.50;;;;;;;22.39;84.77;99934.34;5050038;27;96912;-72
2023/07/28 05:38:47;;;;;;;6.53;4.68;;;;;;;22.27;84.96;99928.31;5054098;27;100266;-73
2023/07/28 05:41:14;;;;;;;7.60;5.18;;;;;;;22.36;84.73;99931.97;5047356;27;98421;-73
2023/07/28 05:43:42;;;;;;;7.65;4.50;;;;;;;22.18;85.42;99931.06;5055904;27;98382;-74
2023/07/28 05:46:09;;;;;;;8.57;5.05;;;;;;;22.27;85.32;99924.78;5053453;27;98353;-72
2023/07/28 05:48:35;;;;;;;4.90;4.38;;;;;;;22.17;86.09;99930.22;5046207;27;101155;-74
2023/07/28 05:51:02;;;;;;;5.03;4.53;;;;;;;22.30;86.04;99935.28;5039960;27;98963;-74
2023/07/28 05:53:31;;;;;;;5.50;4.97;;;;;;;22.33;85.63;99939.47;5047486;27;96862;-74
2023/07/28 05:55:57;;;;;;;7.05;5.00;;;;;;;22.69;84.09;99940.44;5055670;27;97183;-73
2023/07/28 05:58:24;;;;;;;8.23;4.82;;;;;;;22.60;83.64;99934.09;5056005;27;99415;-72
2023/07/28 06:00:52;;;;;;;4.63;4.25;;;;;;;22.54;84.31;99932.88;5051638;27;100934;-72
2023/07/28 06:03:18;;;;;;;4.95;4.53;;;;;;;22.47;84.20;99937.16;5055686;27;96808;-72
2023/07/28 06:05:45;;;;;;;11.88;5.03;;;;;;;22.53;83.88;99947.31;5053045;27;96987;-72
2023/07/28 06:08:11;;;;;;;6.75;4.85;;;;;;;22.32;85.46;99944.00;5056406;27;99323;-72
2023/07/28 06:10:38;;;;;;;5.05;4.50;;;;;;;22.42;85.20;99958.28;5056399;27;98860;-74
2023/07/28 06:13:04;;;;;;;5.10;4.60;;;;;;;22.35;85.76;99953.66;5055211;27;97569;-73
2023/07/28 06:15:31;;;;;;;6.72;5.13;;;;;;;22.18;86.90;99961.53;5053367;27;96814;-72
2023/07/28 06:17:59;;;;;;;6.28;4.35;;;;;;;22.32;85.78;99960.16;5044727;27;97788;-72
2023/07/28 06:20:25;;;;;;;5.40;4.38;;;;;;;22.19;87.11;99971.25;5052217;27;99234;-74
2023/07/28 06:22:52;;;;;;;5.90;4.20;;;;;;;22.36;86.36;99966.97;5057700;27;96649;-73
2023/07/28 06:25:19;;;;;;;6.40;4.75;;;;;;;22.32;86.20;99973.63;5055084;27;96774;-72
2023/07/28 06:27:47;;;;;;;5.10;4.32;;;;;;;22.31;86.11;99988.09;5062423;27;99332;-72
2023/07/28 06:30:13;;;;;;;7.18;4.50;;;;;;;22.52;85.42;99987.84;5050256;27;99052;-72
2023/07/28 06:32:40;;;;;;;5.15;4.70;;;;;;;22.52;85.04;99994.06;5049450;27;98506;-75
2023/07/28 06:35:09;;;;;;;6.82;4.40;;;;;;;22.58;84.55;99995.31;5049777;27;97242;-74
2023/07/28 06:37:36;;;;;;;4.65;4.18;;;;;;;22.39;86.03;99992.72;5052477;27;100783;-74
2023/07/28 06:40:05;;;;;;;3.83;3.53;;;;;;;22.66;84.74;99988.19;5060518;27;102000;-74
2023/07/28 06:42:31;;;;;;;6.03;4.13;;;;;;;22.63;85.03;100001.13;5054193;27;96707;-72
2023/07/28 06:44:58;;;;;;;4.95;3.17;;;;;;;22.74;84.43;99994.72;5056132;27;96954;-73
2023/07/28 06:47:24;;;;;;;4.40;4.00;;;;;;;22.79;83.74;100000.50;5058711;27;99281;-73
2023/07/28 06:49:51;;;;;;;4.05;3.50;;;;;;;22.81;83.31;99999.38;5047275;27;100094;-73
2023/07/28 06:52:19;;;;;;;3.90;3.60;;;;;;;22.70;84.32;100007.63;5053294;27;96996;-75
2023/07/28 06:54:47;;;;;;;3.78;3.53;;;;;;;23.00;83.56;100001.09;5057532;27;98734;-73
2023/07/28 06:57:13;;;;;;;3.75;3.40;;;;;;;23.19;82.83;100000.94;5053633;27;99436;-74
2023/07/28 06:59:40;;;;;;;6.45;4.05;;;;;;;23.63;81.31;100009.16;5048372;27;98622;-73
2023/07/28 07:02:06;;;;;;;4.88;2.92;;;;;;;23.84;79.83;100006.94;5054936;27;97159;-73
2023/07/28 07:04:33;;;;;;;5.53;2.90;;;;;;;23.61;80.15;100019.25;5057108;27;99959;-74
2023/07/28 07:07:00;;;;;;;3.63;2.92;;;;;;;23.79;79.88;100020.06;5049877;27;97198;-74
2023/07/28 07:09:28;;;;;;;3.10;2.80;;;;;;;23.94;79.26;100018.50;5061505;27;98875;-73
2023/07/28 07:11:54;;;;;;;5.00;4.13;;;;;;;24.09;79.09;100008.81;5049622;27;98258;-74
2023/07/28 07:14:21;;;;;;;6.72;2.60;;;;;;;24.01;78.21;100010.63;5052732;27;96870;-73
2023/07/28 07:16:47;;;;;;;3.17;2.88;;;;;;;23.92;79.38;100016.97;5051548;27;97616;-74
2023/07/28 07:19:15;;;;;;;3.40;2.72;;;;;;;23.73;79.52;100023.41;5048957;27;98722;-76
2023/07/28 07:21:44;;;;;;;2.63;2.20;;;;;;;23.34;81.22;100017.44;5051228;27;97190;-73
2023/07/28 07:24:13;;;;;;;2.20;2.08;;;;;;;23.43;82.15;100025.44;5049073;27;96901;-74
2023/07/28 07:26:41;;;;;;;2.58;2.40;;;;;;;23.62;80.46;100029.91;5043969;27;99685;-74
2023/07/28 07:29:08;;;;;;;3.13;2.28;;;;;;;23.61;80.66;100022.78;5044930;27;101185;-73
2023/07/28 07:31:35;;;;;;;2.47;2.28;;;;;;;23.53;80.73;100024.56;5054272;27;97174;-73
2023/07/28 07:34:03;;;;;;;5.05;2.38;;;;;;;23.60;81.09;100025.66;5050301;27;96864;-73
2023/07/28 07:36:30;;;;;;;4.32;2.13;;;;;;;;;;5045789;27;99766;-74
2023/07/28 07:38:56;;;;;;;2.50;2.17;;;;;;;24.13;77.88;100023.72;5049405;27;99168;-72
2023/07/28 07:41:24;;;;;;;4.10;1.95;;;;;;;24.13;78.52;100033.66;5051327;27;97136;-76
2023/07/28 07:43:54;;;;;;;2.03;1.75;;;;;;;24.41;76.61;100026.28;5050261;27;97175;-73
2023/07/28 07:46:21;;;;;;;2.80;1.70;;;;;;;24.34;76.67;100034.16;5047461;27;99047;-73
2023/07/28 07:48:47;;;;;;;3.13;1.65;;;;;;;24.43;76.04;100038.59;5046048;27;99020;-74
2023/07/28 07:51:14;;;;;;;1.58;1.23;;;;;;;24.51;74.98;100033.25;5052107;27;96852;-73
2023/07/28 07:53:41;;;;;;;1.88;1.23;;;;;;;24.23;75.50;100037.97;5060129;27;97261;-75
2023/07/28 07:56:08;;;;;;;3.60;1.17;;;;;;;24.15;76.33;100034.34;5046947;27;102103;-75
2023/07/28 07:58:35;;;;;;;2.88;1.00;;;;;;;24.44;75.66;100042.16;5049703;27;98832;-74
2023/07/28 08:01:04;;;;;;;3.67;1.10;;;;;;;24.59;74.67;100037.84;5050788;27;96821;-73
2023/07/28 08:03:31;;;;;;;1.10;1.00;;;;;;;24.90;73.57;100036.31;5038917;27;98529;-74
2023/07/28 08:05:58;;;;;;;1.10;1.00;;;;;;;25.18;72.15;100042.34;5042328;27;100133;-73
2023/07/28 08:08:24;;;;;;;1.38;0.90;;;;;;;25.64;69.38;100035.50;5046520;27;100592;-74
2023/07/28 08:10:51;;;;;;;0.93;0.77;;;;;;;25.43;69.38;100045.94;5041055;27;97637;-75
2023/07/28 08:13:17;;;;;;;2.85;0.90;;;;;;;25.64;69.41;100037.38;5049829;27;96963;-74
2023/07/28 08:15:44;;;;;;;2.10;1.02;;;;;;;26.14;67.97;100048.84;5049076;27;98479;-73
2023/07/28 08:18:13;;;;;;;1.05;0.80;;;;;;;26.10;66.75;100041.25;5039164;27;99053;-73
2023/07/28 08:20:40;;;;;;;5.75;1.20;;;;;;;26.11;67.74;100048.38;5042261;27;98548;-73
2023/07/28 08:23:07;;;;;;;1.48;0.90;;;;;;;26.20;66.04;100044.59;5053859;27;97226;-74
2023/07/28 08:25:34;;;;;;;3.63;0.93;;;;;;;26.34;65.41;100051.22;5044296;27;98922;-72
2023/07/28 08:28:01;;;;;;;1.23;1.13;;;;;;;26.02;67.47;100049.38;5046132;27;99139;-76
2023/07/28 08:30:28;;;;;;;1.33;1.05;;;;;;;25.51;69.20;100067.59;5046155;27;99137;-73
2023/07/28 08:32:54;;;;;;;0.85;0.77;;;;;;;24.98;70.61;100071.50;5043662;27;98136;-74
2023/07/28 08:35:25;;;;;;;0.77;0.77;;;;;;;24.81;72.17;100074.25;5043643;27;97660;-75
2023/07/28 08:37:51;;;;;;;3.45;1.08;;;;;;;24.47;72.74;100079.66;5054656;27;98783;-76
2023/07/28 08:40:21;;;;;;;3.15;0.88;;;;;;;24.32;74.70;100067.72;5049227;27;96982;-73
2023/07/28 08:42:49;;;;;;;2.80;0.77;;;;;;;24.52;73.24;100075.44;5047358;27;97142;-73
2023/07/28 08:45:16;;;;;;;0.90;0.70;;;;;;;24.81;71.62;100072.38;5053438;27;102253;-72
2023/07/28 08:47:43;;;;;;;1.65;0.80;;;;;;;24.82;70.66;100074.06;5040563;27;99072;-74
2023/07/28 08:50:10;;;;;;;0.70;0.70;;;;;;;25.23;70.09;100077.81;5042551;27;97764;-74
2023/07/28 08:52:37;;;;;;;0.73;0.50;;;;;;;25.28;68.31;100078.16;5049624;27;97252;-74
2023/07/28 08:55:04;;;;;;;2.88;0.60;;;;;;;25.43;66.94;100075.69;5049595;27;101763;-72
2023/07/28 08:57:31;;;;;;;0.65;0.65;;;;;;;24.93;68.41;100084.66;5051080;27;97609;-73
2023/07/28 08:59:57;;;;;;;0.60;0.60;;;;;;;25.22;68.79;100081.53;5055240;27;96836;-72
2023/07/28 09:02:24;;;;;;;2.85;0.90;;;;;;;25.44;68.18;100077.38;5048003;27;98751;-73
2023/07/28 09:04:50;;;;;;;2.97;0.95;;;;;;;25.74;67.35;100089.44;5052057;27;98790;-74
2023/07/28 09:07:17;;;;;;;3.13;0.98;;;;;;;26.27;65.72;100086.28;5052707;27;99426;-74
2023/07/28 09:09:46;;;;;;;1.20;0.68;;;;;;;26.09;65.62;100091.00;5055091;27;97260;-74
2023/07/28 09:12:14;;;;;;;4.45;0.70;;;;;;;26.49;64.41;100096.41;5046657;27;97061;-74
2023/07/28 09:14:41;;;;;;;1.13;0.82;;;;;;;26.14;65.44;100096.75;5048629;27;97690;-74
2023/07/28 09:17:09;;;;;;;0.90;0.70;;;;;;;25.02;70.14;100097.19;5047242;27;99460;-73
2023/07/28 09:19:39;;;;;;;0.80;0.80;;;;;;;24.91;71.15;100092.06;5046371;27;96745;-73
2023/07/28 09:22:06;;;;;;;1.25;1.00;;;;;;;24.91;71.83;100099.31;5047015;27;98688;-73
2023/07/28 09:24:33;;;;;;;1.48;0.70;;;;;;;24.73;72.62;100109.34;5050946;27;99065;-73
2023/07/28 09:27:01;;;;;;;1.35;1.00;;;;;;;24.60;73.79;100098.97;5047848;27;98836;-73
2023/07/28 09:29:28;;;;;;;1.50;0.80;;;;;;;25.25;71.65;100096.59;5053044;27;96832;-73
2023/07/28 09:32:04;;;;;;;0.95;0.90;;;;;;;25.36;70.74;100112.50;5050453;27;97979;-74
2023/07/28 09:34:30;;;;;;;1.10;1.00;;;;;;;25.12;70.23;100102.47;5050188;27;99289;-74
2023/07/28 09:36:58;;;;;;;4.22;0.88;;;;;;;25.37;68.99;100101.53;5042136;27;97963;-73
2023/07/28 09:39:25;;;;;;;1.55;0.70;;;;;;;25.48;69.19;100103.06;5053332;27;97948;-74
2023/07/28 09:41:52;;;;;;;1.40;0.80;;;;;;;25.61;69.38;100108.88;5050838;27;97249;-73
2023/07/28 09:44:20;;;;;;;0.88;0.88;;;;;;;25.64;67.87;100113.97;5051262;27;98162;-71
2023/07/28 09:46:51;;;;;;;1.17;0.80;;;;;;;25.64;68.25;100110.41;5039755;27;100427;-73
2023/07/28 09:49:22;;;;;;;0.90;0.90;;;;;;;25.60;68.63;100112.59;5050080;27;96918;-73
2023/07/28 09:51:54;;;;;;;1.02;0.73;;;;;;;25.93;67.88;100108.06;5056330;27;96867;-74
2023/07/28 09:54:27;;;;;;;1.50;0.93;;;;;;;26.03;67.68;100103.34;5050334;27;98912;-66
2023/07/28 09:56:57;;;;;;;1.63;0.95;;;;;;;25.71;67.33;100106.88;5059139;27;98828;-64
2023/07/28 09:59:29;;;;;;;1.35;1.00;;;;;;;25.28;69.16;100116.03;5054207;27;96852;-65
2023/07/28 10:01:57;;;;;;;0.98;0.80;;;;;;;24.94;71.50;100121.44;5054520;27;96717;-64
2023/07/28 10:04:24;;;;;;;1.40;0.90;;;;;;;24.90;71.67;100128.19;5040592;27;99085;-65
2023/07/28 10:06:56;;;;;;;2.80;1.00;;;;;;;25.00;73.31;100120.00;5037667;27;99540;-64
2023/07/28 10:09:24;;;;;;;2.35;1.10;;;;;;;25.04;73.34;100128.59;5038979;27;97296;-66
2023/07/28 10:11:51;;;;;;;2.15;1.30;;;;;;;25.26;72.22;100125.34;5049794;27;97050;-65
2023/07/28 10:14:29;;;;;;;1.45;1.05;;;;;;;25.42;72.27;100128.06;5045674;27;98903;-65
2023/07/28 10:16:55;;;;;;;4.43;1.50;;;;;;;25.92;71.21;100114.53;5042789;27;98970;-65
2023/07/28 10:19:22;;;;;;;4.05;1.35;;;;;;;26.33;68.80;100107.25;5048006;27;98403;-64
2023/07/28 10:21:48;;;;;;;1.35;1.25;;;;;;;26.45;67.18;100113.19;5052534;27;97233;-64
2023/07/28 10:24:15;;;;;;;1.33;1.20;;;;;;;26.27;67.10;100107.09;5043085;27;99008;-64
2023/07/28 10:26:42;;;;;;;2.30;1.10;;;;;;;26.22;68.03;100118.41;5048086;27;99085;-65
2023/07/28 10:29:10;;;;;;;3.80;1.40;;;;;;;25.67;68.40;100121.75;5052148;27;97166;-64
2023/07/28 10:31:38;;;;;;;1.30;0.95;;;;;;;25.27;70.53;100132.44;5051433;27;98233;-64
2023/07/28 10:34:05;;;;;;;3.38;1.13;;;;;;;24.80;74.46;100159.03;5047969;27;99387;-66
2023/07/28 10:36:35;;;;;;;2.65;1.15;;;;;;;24.40;75.83;100148.78;5044538;27;98505;-65
2023/07/28 10:39:03;;;;;;;2.28;1.15;;;;;;;24.22;78.67;100144.25;5048521;27;97440;-64
2023/07/28 10:41:30;;;;;;;2.25;1.10;;;;;;;24.46;77.44;100145.47;5044787;27;96767;-67
2023/07/28 10:43:57;;;;;;;3.00;1.10;;;;;;;25.40;75.71;100147.16;5048768;27;98934;-64
2023/07/28 10:46:23;;;;;;;2.33;1.40;;;;;;;25.59;73.34;100151.50;5043902;27;98332;-65
2023/07/28 10:48:51;;;;;;;1.23;1.13;;;;;;;25.50;74.12;100151.59;5046126;27;98218;-65
2023/07/28 10:51:23;;;;;;;4.25;1.65;;;;;;;25.47;74.12;100160.06;5046097;27;97316;-64
2023/07/28 10:53:57;;;;;;;6.80;2.30;;;;;;;25.81;73.59;100166.25;5042697;27;98627;-65
2023/07/28 10:56:24;;;;;;;3.65;1.80;;;;;;;25.61;73.92;100171.09;5042028;27;97950;-64
2023/07/28 10:58:57;;;;;;;6.35;2.30;;;;;;;25.21;74.71;100176.31;5045761;27;97808;-63
2023/07/28 11:01:31;;;;;;;3.53;1.63;;;;;;;24.69;76.20;100162.81;5051764;27;96961;-64
2023/07/28 11:04:07;;;;;;;8.32;2.38;;;;;;;24.43;79.23;100176.31;5041771;27;101343;-73
2023/07/28 11:06:33;;;;;;;7.68;2.28;;;;;;;24.97;77.42;100171.66;5048319;27;100359;-72
2023/07/28 11:09:00;;;;;;;3.10;1.55;;;;;;;24.71;77.34;100166.22;5046872;27;96753;-73
2023/07/28 11:11:26;;;;;;;3.75;2.05;;;;;;;24.70;78.17;100178.03;5052860;27;96854;-72
2023/07/28 11:13:54;;;;;;;5.32;1.85;;;;;;;24.87;77.71;100176.31;5048624;27;101907;-72
2023/07/28 11:16:21;;;;;;;4.65;1.90;;;;;;;24.89;77.42;100195.88;5051742;27;98808;-73
2023/07/28 11:18:48;;;;;;;4.78;2.30;;;;;;;24.72;80.36;100188.69;5048637;27;96757;-73
2023/07/28 11:21:23;;;;;;;6.00;2.40;;;;;;;24.57;79.47;100207.31;5039559;27;98407;-73
2023/07/28 11:23:49;;;;;;;7.72;1.95;;;;;;;24.55;79.42;100198.50;5042853;27;99376;-73
2023/07/28 11:26:17;;;;;;;3.15;1.65;;;;;;;24.61;78.37;100187.91;5051797;27;98951;-72
2023/07/28 11:28:44;;;;;;;3.35;1.85;;;;;;;24.62;78.25;100200.44;5050199;27;97107;-72